Sunday, December 21, 2014
13:30 UTC
  |  Log In   |  Register Free
Airport Search:

Meyers-Diver'S Airport
(3TE)

Meyers-Diver'S Airport Diagram
No Airport Diagram Available

FAA data valid effective November 13, 2014 - January 08, 2015 (unless otherwise noted).

 
 
 
 
 
 
 
 
 
 
 
 
 
 

Current Aviation Weather for Meyers-Diver'S Airport (3TE)

METAR data is unavailable for 3TE. The nearest METAR location is at KADG (11.3 nm SW from 3TE).

The most recent METAR observation for KADG was updated at: 2111
METAR Summary (Translated METAR)
KADG
182053Z AUTO 26008KT 10SM BKN016 OVC027 M01/M03 A3018 RMK AO2 SLP230 T10061033 55001 $
(11.3 nm SW from 3TE)
KARB
182053Z AUTO 27007KT 10SM OVC019 M01/M03 A3016 RMK AO2 SLP222 T10061028 55004 $
(14.7 nm NE from 3TE)
TAF
No TAF information found within 50 nm of KADG
  Airport Weather Conditions for 3TE

Current weather conditions are
not available for 3TE


The nearest NOAA weather station
is at ADG, (11.3 nm SW from 3TE)
  
 Current Weather at ADG
27° F
Fog/Mist
North winds at 0.0 mph
ADG NOAA Radar

Pressure: 30.30 in
Humidity: 85%
Wind: Calm
Dew Point: 23.0°F
Visibility: 6.00 mi


Airport Weather Forecast for 3TE

Translated METAR and TAF for KADG
Translated METAR for KADG (1331 UTC 21 December 2014)
found at http://aviationweather.gov/adds/metars/
 
METAR text: KADG 211253Z AUTO 00000KT 6SM BR OVC060 M03/M05 A3030 RMK AO2 SLP274 T10281050 $
Conditions at: KADG (ADRIAN , MI, US) observed 1253 UTC 21 December 2014
Temperature: -2.8°C (27°F)
Dewpoint: -5.0°C (23°F) [RH = 85%]
Pressure (altimeter): 30.30 inches Hg (1026.2 mb)
[Sea-level pressure: 1027.4 mb]
Winds: calm
Visibility: 6 miles (10 km)
Ceiling: 6000 feet AGL
Clouds: overcast cloud deck at 6000 feet AGL
Weather: BR  (mist)
SOME DATA ABOVE MAY BE INACCURATE!!!
"$" is an indication the sensor requires maintenance
Translated TAF for KADG

There is no translated TAF available for this airport

Find All Airport Services Find A Hotel Find A Rental Car Find A Golf Course Find A Restaurant $100 Hamburger



FBO's on the Field
FBO Company Facility Photos Services Transportation Aviation Fuel Prices: Prices include tax
Catering Weather Repair Courtesy Rental Type 100LL JetA JetA+ MOGAS 8087
 
Village of Boyceville

This FBO has not yet been rated
FS:Shell
Last Updated: Dec-18
Login to update fuel prices
SS:
Contact Village of BoycevilleMore FBO Information
 
Add another FBO Facility Photos Catering Weather Repair Courtesy Rental Type 100LL JetA JetA+ MOGAS 8087
Services Transportation Aviation Fuel Prices: Prices include tax


model-print
model-print
model-print
model-print